createdAt,value
2024-01-06T00:00:35.300Z,93368.00
2024-01-06T00:01:35.294Z,93366.00
2024-01-06T00:02:35.292Z,93368.00
2024-01-06T00:03:35.381Z,93368.00
2024-01-06T00:04:35.318Z,93367.00
2024-01-06T00:05:35.368Z,93370.00
2024-01-06T00:06:35.394Z,93373.00
2024-01-06T00:07:35.350Z,93373.00
2024-01-06T00:08:35.379Z,93371.00
2024-01-06T00:09:35.410Z,93368.00
2024-01-06T00:10:35.405Z,93365.00
2024-01-06T00:11:35.426Z,93364.00
2024-01-06T00:12:35.494Z,93365.00
2024-01-06T00:13:35.452Z,93363.00
2024-01-06T00:14:35.506Z,93363.00
2024-01-06T00:15:35.540Z,93363.00
2024-01-06T00:16:35.483Z,93364.00
2024-01-06T00:17:35.518Z,93364.00
2024-01-06T00:18:35.599Z,93363.00
2024-01-06T00:19:35.655Z,93363.00
2024-01-06T00:20:35.541Z,93361.00
2024-01-06T00:21:35.612Z,93359.00
2024-01-06T00:22:35.582Z,93358.00
2024-01-06T00:23:35.591Z,93359.00
2024-01-06T00:24:35.703Z,93357.00
2024-01-06T00:25:35.630Z,93358.00
2024-01-06T00:26:35.634Z,93359.00
2024-01-06T00:27:35.677Z,93357.00
2024-01-06T00:28:35.670Z,93359.00
2024-01-06T00:29:35.682Z,93355.00
2024-01-06T00:30:35.775Z,93355.00
2024-01-06T00:31:35.842Z,93355.00
2024-01-06T00:32:38.060Z,93354.00
2024-01-06T00:33:35.958Z,93357.00
2024-01-06T00:34:36.040Z,93355.00
2024-01-06T00:35:35.881Z,93353.00
2024-01-06T00:36:35.964Z,93354.00
2024-01-06T00:37:35.902Z,93353.00
2024-01-06T00:38:35.925Z,93353.00
2024-01-06T00:39:35.952Z,93354.00
2024-01-06T00:40:35.931Z,93354.00
2024-01-06T00:41:35.963Z,93357.00
2024-01-06T00:42:35.998Z,93358.00
2024-01-06T00:43:35.976Z,93361.00
2024-01-06T00:44:35.986Z,93361.00
2024-01-06T00:45:36.031Z,93361.00
2024-01-06T00:46:36.055Z,93360.00
2024-01-06T00:47:36.125Z,93362.00
2024-01-06T00:48:36.108Z,93360.00
2024-01-06T00:49:36.235Z,93358.00
2024-01-06T00:50:36.057Z,93356.00
2024-01-06T00:51:39.115Z,93356.00
2024-01-06T00:52:36.072Z,93358.00
2024-01-06T00:53:36.121Z,93362.00
2024-01-06T00:54:36.102Z,93363.00
2024-01-06T00:55:36.073Z,93365.00
2024-01-06T00:56:36.068Z,93365.00
2024-01-06T00:57:36.131Z,93367.00
2024-01-06T00:58:36.131Z,93367.00
2024-01-06T00:59:36.075Z,93366.00
2024-01-06T01:00:36.187Z,93363.00
2024-01-06T01:01:36.113Z,93364.00
2024-01-06T01:02:37.972Z,93365.00
2024-01-06T01:03:36.150Z,93365.00
2024-01-06T01:04:36.128Z,93368.00
2024-01-06T01:05:36.168Z,93367.00
2024-01-06T01:06:36.093Z,93368.00
2024-01-06T01:07:36.082Z,93367.00
2024-01-06T01:08:36.097Z,93367.00
2024-01-06T01:09:36.112Z,93365.00
2024-01-06T01:10:36.104Z,93365.00
2024-01-06T01:11:36.102Z,93365.00
2024-01-06T01:12:36.142Z,93365.00
2024-01-06T01:13:36.174Z,93365.00
2024-01-06T01:14:36.102Z,93364.00
2024-01-06T01:15:36.156Z,93365.00
2024-01-06T01:16:36.119Z,93365.00
2024-01-06T01:17:36.142Z,93367.00
2024-01-06T01:18:36.169Z,93367.00
2024-01-06T01:19:36.195Z,93368.00
2024-01-06T01:20:36.130Z,93366.00
2024-01-06T01:21:36.152Z,93366.00
2024-01-06T01:22:36.111Z,93368.00
2024-01-06T01:23:36.128Z,93366.00
2024-01-06T01:24:36.153Z,93365.00
2024-01-06T01:25:36.107Z,93368.00
2024-01-06T01:26:36.105Z,93367.00
2024-01-06T01:27:36.167Z,93368.00
2024-01-06T01:28:36.122Z,93366.00
2024-01-06T01:29:36.114Z,93365.00
2024-01-06T01:30:36.214Z,93367.00
2024-01-06T01:31:36.326Z,93368.00
2024-01-06T01:32:36.180Z,93370.00
2024-01-06T01:33:36.242Z,93369.00
2024-01-06T01:34:36.236Z,93366.00
2024-01-06T01:35:36.120Z,93362.00
2024-01-06T01:36:36.197Z,93364.00
2024-01-06T01:37:36.129Z,93365.00
2024-01-06T01:38:36.132Z,93366.00
2024-01-06T01:39:36.150Z,93367.00
2024-01-06T01:40:36.134Z,93367.00
2024-01-06T01:41:36.135Z,93365.00
2024-01-06T01:42:36.165Z,93367.00
2024-01-06T01:43:36.163Z,93366.00
2024-01-06T01:44:36.131Z,93366.00
2024-01-06T01:45:36.140Z,93367.00
2024-01-06T01:46:36.154Z,93364.00
2024-01-06T01:47:36.177Z,93363.00
2024-01-06T01:48:36.440Z,93362.00
2024-01-06T01:49:36.271Z,93360.00
2024-01-06T01:50:36.143Z,93358.00
2024-01-06T01:51:36.184Z,93358.00
2024-01-06T01:52:36.156Z,93359.00
2024-01-06T01:53:36.151Z,93362.00
2024-01-06T01:54:36.193Z,93363.00
2024-01-06T01:55:36.138Z,93363.00
2024-01-06T01:56:36.144Z,93363.00
2024-01-06T01:57:36.229Z,93364.00
2024-01-06T01:58:36.160Z,93363.00
2024-01-06T01:59:36.144Z,93362.00
2024-01-06T02:00:36.190Z,93362.00
2024-01-06T02:01:36.177Z,93359.00
2024-01-06T02:02:36.190Z,93359.00
2024-01-06T02:03:36.177Z,93359.00
2024-01-06T02:04:36.149Z,93359.00
2024-01-06T02:05:36.182Z,93358.00
2024-01-06T02:06:36.200Z,93360.00
2024-01-06T02:07:36.182Z,93361.00
2024-01-06T02:08:36.163Z,93359.00
2024-01-06T02:09:36.186Z,93358.00
2024-01-06T02:10:36.160Z,93356.00
2024-01-06T02:11:36.172Z,93358.00
2024-01-06T02:12:36.190Z,93357.00
2024-01-06T02:13:36.175Z,93359.00
2024-01-06T02:14:36.163Z,93360.00
2024-01-06T02:15:36.186Z,93362.00
2024-01-06T02:16:36.181Z,93363.00
2024-01-06T02:17:36.211Z,93365.00
2024-01-06T02:18:36.311Z,93368.00
2024-01-06T02:19:36.285Z,93367.00
2024-01-06T02:20:36.176Z,93362.00
2024-01-06T02:21:36.235Z,93362.00
2024-01-06T02:22:36.204Z,93362.00
2024-01-06T02:23:36.198Z,93363.00
2024-01-06T02:24:36.249Z,93365.00
2024-01-06T02:25:36.234Z,93364.00
2024-01-06T02:26:36.195Z,93364.00
2024-01-06T02:27:36.269Z,93362.00
2024-01-06T02:28:36.216Z,93361.00
2024-01-06T02:29:36.203Z,93362.00
2024-01-06T02:30:36.234Z,93362.00
2024-01-06T02:31:36.331Z,93363.00
2024-01-06T02:32:36.279Z,93364.00
2024-01-06T02:33:36.334Z,93366.00
2024-01-06T02:34:36.464Z,93367.00
2024-01-06T02:35:36.205Z,93367.00
2024-01-06T02:36:36.233Z,93365.00
2024-01-06T02:37:36.206Z,93364.00
2024-01-06T02:38:36.230Z,93364.00
2024-01-06T02:39:36.343Z,93364.00
2024-01-06T02:40:36.219Z,93365.00
2024-01-06T02:41:36.206Z,93368.00
2024-01-06T02:42:36.272Z,93369.00
2024-01-06T02:43:36.230Z,93368.00
2024-01-06T02:44:36.228Z,93367.00
2024-01-06T02:45:36.281Z,93365.00
2024-01-06T02:46:36.214Z,93364.00
2024-01-06T02:47:36.301Z,93365.00
2024-01-06T02:48:36.336Z,93367.00
2024-01-06T02:49:36.284Z,93371.00
2024-01-06T02:50:36.232Z,93373.00
2024-01-06T02:51:36.264Z,93372.00
2024-01-06T02:52:36.229Z,93373.00
2024-01-06T02:53:36.232Z,93373.00
2024-01-06T02:54:36.253Z,93371.00
2024-01-06T02:55:36.233Z,93369.00
2024-01-06T02:56:36.231Z,93367.00
2024-01-06T02:57:36.308Z,93367.00
2024-01-06T02:58:36.245Z,93364.00
2024-01-06T02:59:36.256Z,93367.00
2024-01-06T03:00:36.344Z,93369.00
2024-01-06T03:01:36.335Z,93371.00
2024-01-06T03:02:36.255Z,93374.00
2024-01-06T03:03:36.325Z,93373.00
2024-01-06T03:04:36.299Z,93373.00
2024-01-06T03:05:36.279Z,93369.00
2024-01-06T03:06:36.261Z,93368.00
2024-01-06T03:07:36.258Z,93369.00
2024-01-06T03:08:36.251Z,93370.00
2024-01-06T03:09:36.293Z,93372.00
2024-01-06T03:10:36.258Z,93372.00
2024-01-06T03:11:36.259Z,93369.00
2024-01-06T03:12:36.293Z,93367.00
2024-01-06T03:13:36.268Z,93368.00
2024-01-06T03:14:36.280Z,93369.00
2024-01-06T03:15:36.340Z,93370.00
2024-01-06T03:16:36.263Z,93372.00
2024-01-06T03:17:36.371Z,93372.00
2024-01-06T03:18:36.450Z,93374.00
2024-01-06T03:19:36.321Z,93372.00
2024-01-06T03:20:36.268Z,93371.00
2024-01-06T03:21:36.309Z,93373.00
2024-01-06T03:22:36.270Z,93374.00
2024-01-06T03:23:36.285Z,93374.00
2024-01-06T03:24:36.304Z,93376.00
2024-01-06T03:25:36.298Z,93376.00
2024-01-06T03:26:36.292Z,93375.00
2024-01-06T03:27:36.333Z,93373.00
2024-01-06T03:28:36.304Z,93373.00
2024-01-06T03:29:36.289Z,93373.00
2024-01-06T03:30:36.348Z,93373.00
2024-01-06T03:31:36.364Z,93372.00
2024-01-06T03:32:36.309Z,93370.00
2024-01-06T03:33:36.396Z,93370.00
2024-01-06T03:34:36.386Z,93373.00
2024-01-06T03:35:36.289Z,93373.00
2024-01-06T03:36:36.325Z,93374.00
2024-01-06T03:37:36.300Z,93371.00
2024-01-06T03:38:36.342Z,93372.00
2024-01-06T03:39:36.335Z,93373.00
2024-01-06T03:40:36.328Z,93374.00
2024-01-06T03:41:36.316Z,93376.00
2024-01-06T03:42:36.336Z,93380.00
2024-01-06T03:43:36.305Z,93381.00
2024-01-06T03:44:36.331Z,93382.00
2024-01-06T03:45:36.336Z,93385.00
2024-01-06T03:46:36.314Z,93384.00
2024-01-06T03:47:36.352Z,93383.00
2024-01-06T03:48:36.473Z,93382.00
2024-01-06T03:49:36.390Z,93382.00
2024-01-06T03:50:36.318Z,93383.00
2024-01-06T03:51:36.418Z,93380.00
2024-01-06T03:52:36.334Z,93380.00
2024-01-06T03:53:36.340Z,93377.00
2024-01-06T03:54:36.356Z,93377.00
2024-01-06T03:55:36.324Z,93377.00
2024-01-06T03:56:36.319Z,93376.00
2024-01-06T03:57:36.373Z,93376.00
2024-01-06T03:58:36.357Z,93375.00
2024-01-06T03:59:36.329Z,93373.00
2024-01-06T04:00:36.376Z,93375.00
2024-01-06T04:01:36.388Z,93374.00
2024-01-06T04:02:36.370Z,93375.00
2024-01-06T04:03:36.435Z,93373.00
2024-01-06T04:04:36.468Z,93372.00
2024-01-06T04:05:36.411Z,93376.00
2024-01-06T04:06:36.384Z,93375.00
2024-01-06T04:07:36.346Z,93376.00
2024-01-06T04:08:36.380Z,93377.00
2024-01-06T04:09:36.378Z,93379.00
2024-01-06T04:10:36.352Z,93379.00
2024-01-06T04:11:36.348Z,93384.00
2024-01-06T04:12:36.401Z,93383.00
2024-01-06T04:13:36.360Z,93383.00
2024-01-06T04:14:36.361Z,93386.00
2024-01-06T04:15:36.395Z,93386.00
2024-01-06T04:16:36.363Z,93386.00
2024-01-06T04:17:36.391Z,93389.00
2024-01-06T04:18:36.534Z,93390.00
2024-01-06T04:19:36.462Z,93392.00
2024-01-06T04:20:36.366Z,93391.00
2024-01-06T04:21:36.400Z,93392.00
2024-01-06T04:22:36.385Z,93390.00
2024-01-06T04:23:36.373Z,93393.00
2024-01-06T04:24:36.475Z,93394.00
2024-01-06T04:25:36.367Z,93395.00
2024-01-06T04:26:36.378Z,93396.00
2024-01-06T04:27:36.465Z,93396.00
2024-01-06T04:28:36.384Z,93399.00
2024-01-06T04:29:36.373Z,93398.00
2024-01-06T04:30:43.715Z,93401.00
2024-01-06T04:31:51.154Z,93401.00
2024-01-06T04:32:51.126Z,93404.00
2024-01-06T04:33:51.084Z,93404.00
2024-01-06T04:34:50.991Z,93406.00
2024-01-06T04:35:50.988Z,93405.00
2024-01-06T04:36:51.027Z,93405.00
2024-01-06T04:37:50.999Z,93407.00
2024-01-06T04:38:50.997Z,93405.00
2024-01-06T04:39:51.073Z,93408.00
2024-01-06T04:40:50.999Z,93406.00
2024-01-06T04:41:50.982Z,93407.00
2024-01-06T04:42:51.120Z,93410.00
2024-01-06T04:43:50.984Z,93411.00
2024-01-06T04:44:50.993Z,93413.00
2024-01-06T04:45:51.003Z,93415.00
2024-01-06T04:46:51.003Z,93415.00
2024-01-06T04:47:51.013Z,93418.00
2024-01-06T04:48:51.044Z,93417.00
2024-01-06T04:49:51.064Z,93417.00
2024-01-06T04:50:50.999Z,93418.00
2024-01-06T04:51:51.015Z,93416.00
2024-01-06T04:52:51.002Z,93416.00
2024-01-06T04:53:51.029Z,93416.00
2024-01-06T04:54:51.139Z,93418.00
2024-01-06T04:55:51.008Z,93418.00
2024-01-06T04:56:51.010Z,93421.00
2024-01-06T04:57:51.126Z,93421.00
2024-01-06T04:58:51.012Z,93425.00
2024-01-06T04:59:51.010Z,93427.00
2024-01-06T05:00:51.083Z,93430.00
2024-01-06T05:01:51.036Z,93431.00
2024-01-06T05:02:51.063Z,93432.00
2024-01-06T05:03:51.104Z,93432.00
2024-01-06T05:04:51.028Z,93433.00
2024-01-06T05:05:51.077Z,93434.00
2024-01-06T05:06:51.073Z,93435.00
2024-01-06T05:07:51.029Z,93436.00
2024-01-06T05:08:51.023Z,93435.00
2024-01-06T05:09:51.095Z,93438.00
2024-01-06T05:10:51.023Z,93438.00
2024-01-06T05:11:51.020Z,93439.00
2024-01-06T05:12:51.149Z,93438.00
2024-01-06T05:13:51.033Z,93438.00
2024-01-06T05:14:51.031Z,93438.00
2024-01-06T05:15:51.127Z,93439.00
2024-01-06T05:16:51.021Z,93438.00
2024-01-06T05:17:51.088Z,93440.00
2024-01-06T05:18:51.225Z,93440.00
2024-01-06T05:19:51.234Z,93442.00
2024-01-06T05:20:51.018Z,93446.00
2024-01-06T05:21:51.122Z,93445.00
2024-01-06T05:22:51.038Z,93446.00
2024-01-06T05:23:51.079Z,93448.00
2024-01-06T05:24:51.140Z,93448.00
2024-01-06T05:25:51.060Z,93448.00
2024-01-06T05:26:51.046Z,93448.00
2024-01-06T05:27:51.066Z,93451.00
2024-01-06T05:28:51.052Z,93452.00
2024-01-06T05:29:51.080Z,93453.00
2024-01-06T05:30:51.133Z,93454.00
2024-01-06T05:31:51.153Z,93455.00
2024-01-06T05:32:51.133Z,93456.00
2024-01-06T05:33:51.115Z,93458.00
2024-01-06T05:34:51.225Z,93459.00
2024-01-06T05:35:51.093Z,93459.00
2024-01-06T05:36:51.136Z,93462.00
2024-01-06T05:37:51.061Z,93463.00
2024-01-06T05:38:53.553Z,93465.00
2024-01-06T05:39:51.148Z,93468.00
2024-01-06T05:40:51.067Z,93468.00
2024-01-06T05:41:51.064Z,93471.00
2024-01-06T05:42:51.077Z,93474.00
2024-01-06T05:43:51.080Z,93474.00
2024-01-06T05:44:51.079Z,93477.00
2024-01-06T05:45:51.100Z,93478.00
2024-01-06T05:46:51.068Z,93479.00
2024-01-06T05:47:51.195Z,93480.00
2024-01-06T05:48:51.293Z,93485.00
2024-01-06T05:49:51.077Z,93484.00
2024-01-06T05:50:51.081Z,93485.00
2024-01-06T05:51:51.123Z,93485.00
2024-01-06T05:52:51.082Z,93486.00
2024-01-06T05:53:51.085Z,93487.00
2024-01-06T05:54:51.110Z,93487.00
2024-01-06T05:55:51.093Z,93489.00
2024-01-06T05:56:51.087Z,93488.00
2024-01-06T05:57:51.168Z,93489.00
2024-01-06T05:58:51.120Z,93489.00
2024-01-06T05:59:51.098Z,93491.00
2024-01-06T06:00:51.143Z,93493.00
2024-01-06T06:01:51.132Z,93496.00
2024-01-06T06:02:51.100Z,93498.00
2024-01-06T06:03:51.175Z,93496.00
2024-01-06T06:04:51.194Z,93498.00
2024-01-06T06:05:51.104Z,93497.00
2024-01-06T06:06:51.120Z,93497.00
2024-01-06T06:07:51.094Z,93497.00
2024-01-06T06:08:51.122Z,93496.00
2024-01-06T06:09:51.159Z,93498.00
2024-01-06T06:10:51.111Z,93497.00
2024-01-06T06:11:51.099Z,93502.00
2024-01-06T06:12:51.171Z,93503.00
2024-01-06T06:13:51.122Z,93504.00
2024-01-06T06:14:51.105Z,93504.00
2024-01-06T06:15:51.199Z,93505.00
2024-01-06T06:16:51.110Z,93506.00
2024-01-06T06:17:51.127Z,93504.00
2024-01-06T06:18:51.189Z,93505.00
2024-01-06T06:19:51.193Z,93505.00
2024-01-06T06:20:51.114Z,93508.00
2024-01-06T06:21:51.202Z,93509.00
2024-01-06T06:22:51.124Z,93509.00
2024-01-06T06:23:51.125Z,93510.00
2024-01-06T06:24:51.180Z,93510.00
2024-01-06T06:25:51.119Z,93516.00
2024-01-06T06:26:51.128Z,93517.00
2024-01-06T06:27:51.202Z,93520.00
2024-01-06T06:28:51.122Z,93517.00
2024-01-06T06:29:51.115Z,93518.00
2024-01-06T06:30:51.272Z,93518.00
2024-01-06T06:31:51.198Z,93517.00
2024-01-06T06:32:51.187Z,93516.00
2024-01-06T06:33:51.345Z,93520.00
2024-01-06T06:34:51.206Z,93519.00
2024-01-06T06:35:51.129Z,93519.00
2024-01-06T06:36:51.227Z,93519.00
2024-01-06T06:37:51.131Z,93522.00
2024-01-06T06:38:51.147Z,93522.00
2024-01-06T06:39:51.301Z,93523.00
2024-01-06T06:40:51.135Z,93525.00
2024-01-06T06:41:51.165Z,93525.00
2024-01-06T06:42:51.249Z,93525.00
2024-01-06T06:43:51.147Z,93529.00
2024-01-06T06:44:51.143Z,93530.00
2024-01-06T06:45:51.209Z,93534.00
2024-01-06T06:46:51.142Z,93534.00
2024-01-06T06:47:51.221Z,93537.00
2024-01-06T06:48:51.171Z,93545.00
2024-01-06T06:49:51.201Z,93544.00
2024-01-06T06:50:51.158Z,93545.00
2024-01-06T06:51:51.263Z,93544.00
2024-01-06T06:52:51.148Z,93541.00
2024-01-06T06:53:51.522Z,93542.00
2024-01-06T06:54:51.250Z,93544.00
2024-01-06T06:55:51.153Z,93548.00
2024-01-06T06:56:51.176Z,93549.00
2024-01-06T06:57:51.320Z,93553.00
2024-01-06T06:58:51.165Z,93553.00
2024-01-06T06:59:51.165Z,93554.00
2024-01-06T07:00:51.237Z,93556.00
2024-01-06T07:01:51.227Z,93557.00
2024-01-06T07:02:51.188Z,93555.00
2024-01-06T07:03:51.209Z,93556.00
2024-01-06T07:04:51.166Z,93557.00
2024-01-06T07:05:51.358Z,93559.00
2024-01-06T07:06:51.340Z,93560.00
2024-01-06T07:07:51.174Z,93560.00
2024-01-06T07:08:51.177Z,93563.00
2024-01-06T07:09:51.207Z,93562.00
2024-01-06T07:10:51.206Z,93565.00
2024-01-06T07:11:51.238Z,93564.00
2024-01-06T07:12:51.284Z,93562.00
2024-01-06T07:13:51.232Z,93564.00
2024-01-06T07:14:51.240Z,93563.00
2024-01-06T07:15:52.380Z,93564.00
2024-01-06T07:16:51.347Z,93565.00
2024-01-06T07:17:51.439Z,93563.00
2024-01-06T07:18:51.467Z,93564.00
2024-01-06T07:19:51.456Z,93565.00
2024-01-06T07:20:51.416Z,93567.00
2024-01-06T07:21:51.519Z,93569.00
2024-01-06T07:22:51.460Z,93570.00
2024-01-06T07:23:51.485Z,93572.00
2024-01-06T07:24:51.548Z,93572.00
2024-01-06T07:25:51.529Z,93574.00
2024-01-06T07:26:51.533Z,93571.00
2024-01-06T07:27:55.173Z,93572.00
2024-01-06T07:28:51.579Z,93574.00
2024-01-06T07:29:51.565Z,93575.00
2024-01-06T07:30:51.646Z,93576.00
2024-01-06T07:31:51.716Z,93574.00
2024-01-06T07:32:51.597Z,93575.00
2024-01-06T07:33:51.625Z,93576.00
2024-01-06T07:34:51.645Z,93575.00
2024-01-06T07:35:51.565Z,93576.00
2024-01-06T07:36:51.602Z,93578.00
2024-01-06T07:37:51.572Z,93578.00
2024-01-06T07:38:51.571Z,93581.00
2024-01-06T07:39:51.586Z,93582.00
2024-01-06T07:40:51.577Z,93585.00
2024-01-06T07:41:51.570Z,93583.00
2024-01-06T07:42:52.150Z,93587.00
2024-01-06T07:43:51.580Z,93587.00
2024-01-06T07:44:51.606Z,93587.00
2024-01-06T07:45:51.615Z,93589.00
2024-01-06T07:46:51.578Z,93592.00
2024-01-06T07:47:51.686Z,93592.00
2024-01-06T07:48:51.722Z,93590.00
2024-01-06T07:49:51.670Z,93591.00
2024-01-06T07:50:51.608Z,93594.00
2024-01-06T07:51:51.680Z,93595.00
2024-01-06T07:52:51.580Z,93596.00
2024-01-06T07:53:51.588Z,93597.00
2024-01-06T07:54:51.701Z,93598.00
2024-01-06T07:55:51.595Z,93598.00
2024-01-06T07:56:51.586Z,93598.00
2024-01-06T07:57:51.657Z,93595.00
2024-01-06T07:58:51.609Z,93597.00
2024-01-06T07:59:51.601Z,93596.00
2024-01-06T08:00:51.684Z,93597.00
2024-01-06T08:01:51.707Z,93598.00
2024-01-06T08:02:51.599Z,93598.00
2024-01-06T08:03:51.736Z,93598.00
2024-01-06T08:04:51.625Z,93601.00
2024-01-06T08:05:51.645Z,93603.00
2024-01-06T08:06:54.602Z,93604.00
2024-01-06T08:07:51.600Z,93602.00
2024-01-06T08:08:51.613Z,93604.00
2024-01-06T08:09:51.710Z,93604.00
2024-01-06T08:10:51.621Z,93606.00
2024-01-06T08:11:51.615Z,93606.00
2024-01-06T08:12:51.626Z,93605.00
2024-01-06T08:13:51.672Z,93604.00
2024-01-06T08:14:51.613Z,93605.00
2024-01-06T08:15:51.789Z,93607.00
2024-01-06T08:16:51.616Z,93609.00
2024-01-06T08:17:51.743Z,93611.00
2024-01-06T08:18:51.749Z,93615.00
2024-01-06T08:19:51.754Z,93616.00
2024-01-06T08:20:51.623Z,93618.00
2024-01-06T08:21:51.680Z,93618.00
2024-01-06T08:22:51.631Z,93616.00
2024-01-06T08:23:51.638Z,93616.00
2024-01-06T08:24:51.678Z,93616.00
2024-01-06T08:25:51.644Z,93614.00
2024-01-06T08:26:51.647Z,93615.00
2024-01-06T08:27:51.775Z,93614.00
2024-01-06T08:28:51.678Z,93615.00
2024-01-06T08:29:51.672Z,93617.00
2024-01-06T08:30:51.906Z,93620.00
2024-01-06T08:31:51.775Z,93620.00
2024-01-06T08:32:51.709Z,93622.00
2024-01-06T08:33:51.898Z,93623.00
2024-01-06T08:34:51.692Z,93625.00
2024-01-06T08:35:51.676Z,93624.00
2024-01-06T08:36:51.724Z,93626.00
2024-01-06T08:37:51.656Z,93627.00
2024-01-06T08:38:51.671Z,93631.00
2024-01-06T08:39:51.724Z,93631.00
2024-01-06T08:40:51.648Z,93633.00
2024-01-06T08:41:51.656Z,93634.00
2024-01-06T08:42:51.679Z,93639.00
2024-01-06T08:43:51.654Z,93639.00
2024-01-06T08:44:51.693Z,93642.00
2024-01-06T08:45:51.716Z,93640.00
2024-01-06T08:46:51.663Z,93641.00
2024-01-06T08:47:51.714Z,93640.00
2024-01-06T08:48:51.734Z,93642.00
2024-01-06T08:49:51.825Z,93643.00
2024-01-06T08:50:51.662Z,93642.00
2024-01-06T08:51:51.749Z,93643.00
2024-01-06T08:52:51.663Z,93642.00
2024-01-06T08:53:51.687Z,93643.00
2024-01-06T08:54:51.785Z,93640.00
2024-01-06T08:55:51.752Z,93643.00
2024-01-06T08:56:51.740Z,93644.00
2024-01-06T08:57:51.805Z,93648.00
2024-01-06T08:58:51.759Z,93648.00
2024-01-06T08:59:51.762Z,93647.00
2024-01-06T09:00:51.824Z,93647.00
2024-01-06T09:01:51.878Z,93648.00
2024-01-06T09:02:51.872Z,93648.00
2024-01-06T09:03:52.151Z,93649.00
2024-01-06T09:04:51.866Z,93649.00
2024-01-06T09:05:51.984Z,93651.00
2024-01-06T09:06:51.961Z,93650.00
2024-01-06T09:07:54.973Z,93651.00
2024-01-06T09:08:51.938Z,93654.00
2024-01-06T09:09:51.955Z,93651.00
2024-01-06T09:10:51.941Z,93655.00
2024-01-06T09:11:51.943Z,93654.00
2024-01-06T09:12:51.985Z,93653.00
2024-01-06T09:13:51.953Z,93654.00
2024-01-06T09:14:51.938Z,93654.00
2024-01-06T09:15:51.966Z,93655.00
2024-01-06T09:16:51.942Z,93656.00
2024-01-06T09:17:52.054Z,93656.00
2024-01-06T09:18:52.108Z,93656.00
2024-01-06T09:19:52.017Z,93657.00
2024-01-06T09:20:51.942Z,93657.00
2024-01-06T09:21:51.986Z,93657.00
2024-01-06T09:22:51.965Z,93656.00
2024-01-06T09:23:51.945Z,93657.00
2024-01-06T09:24:51.982Z,93657.00
2024-01-06T09:25:51.963Z,93661.00
2024-01-06T09:26:51.950Z,93661.00
2024-01-06T09:27:51.996Z,93658.00
2024-01-06T09:28:51.959Z,93658.00
2024-01-06T09:29:51.961Z,93658.00
2024-01-06T09:30:52.053Z,93656.00
2024-01-06T09:31:52.043Z,93653.00
2024-01-06T09:32:52.093Z,93654.00
2024-01-06T09:33:52.056Z,93652.00
2024-01-06T09:34:52.080Z,93654.00
2024-01-06T09:35:52.120Z,93655.00
2024-01-06T09:36:52.009Z,93658.00
2024-01-06T09:37:51.974Z,93660.00
2024-01-06T09:38:51.973Z,93659.00
2024-01-06T09:39:51.998Z,93662.00
2024-01-06T09:40:51.979Z,93661.00
2024-01-06T09:41:52.071Z,93661.00
2024-01-06T09:42:52.052Z,93658.00
2024-01-06T09:43:51.974Z,93660.00
2024-01-06T09:44:51.978Z,93660.00
2024-01-06T09:45:52.000Z,93659.00
2024-01-06T09:46:51.978Z,93661.00
2024-01-06T09:47:52.135Z,93661.00
2024-01-06T09:48:52.146Z,93660.00
2024-01-06T09:49:52.267Z,93661.00
2024-01-06T09:50:51.990Z,93663.00
2024-01-06T09:51:52.053Z,93664.00
2024-01-06T09:52:51.994Z,93663.00
2024-01-06T09:53:52.002Z,93662.00
2024-01-06T09:54:52.031Z,93660.00
2024-01-06T09:55:52.015Z,93663.00
2024-01-06T09:56:51.997Z,93663.00
2024-01-06T09:57:52.081Z,93663.00
2024-01-06T09:58:52.036Z,93663.00
2024-01-06T09:59:52.001Z,93663.00
2024-01-06T10:00:52.110Z,93662.00
2024-01-06T10:01:52.062Z,93663.00
2024-01-06T10:02:52.102Z,93660.00
2024-01-06T10:03:52.129Z,93661.00
2024-01-06T10:04:52.076Z,93660.00
2024-01-06T10:05:52.074Z,93660.00
2024-01-06T10:06:52.086Z,93661.00
2024-01-06T10:07:52.007Z,93662.00
2024-01-06T10:08:52.057Z,93659.00
2024-01-06T10:09:52.039Z,93660.00
2024-01-06T10:10:52.031Z,93661.00
2024-01-06T10:11:52.028Z,93658.00
2024-01-06T10:12:52.039Z,93659.00
2024-01-06T10:13:52.116Z,93661.00
2024-01-06T10:14:52.029Z,93659.00
2024-01-06T10:15:52.046Z,93657.00
2024-01-06T10:16:52.018Z,93658.00
2024-01-06T10:17:52.120Z,93657.00
2024-01-06T10:18:54.153Z,93655.00
2024-01-06T10:19:52.335Z,93655.00
2024-01-06T10:20:52.357Z,93654.00
2024-01-06T10:21:52.473Z,93655.00
2024-01-06T10:22:52.434Z,93657.00
2024-01-06T10:23:52.828Z,93654.00
2024-01-06T10:24:52.540Z,93657.00
2024-01-06T10:25:56.301Z,93658.00
2024-01-06T10:26:52.552Z,93655.00
2024-01-06T10:27:52.596Z,93655.00
2024-01-06T10:28:52.641Z,93655.00
2024-01-06T10:29:52.573Z,93653.00
2024-01-06T10:30:52.662Z,93652.00
2024-01-06T10:31:54.825Z,93653.00
2024-01-06T10:32:52.629Z,93651.00
2024-01-06T10:33:52.706Z,93654.00
2024-01-06T10:34:52.604Z,93654.00
2024-01-06T10:35:52.553Z,93652.00
2024-01-06T10:36:52.632Z,93653.00
2024-01-06T10:37:52.561Z,93651.00
2024-01-06T10:38:52.581Z,93651.00
2024-01-06T10:39:52.608Z,93651.00
2024-01-06T10:40:52.560Z,93650.00
2024-01-06T10:41:52.563Z,93648.00
2024-01-06T10:42:52.623Z,93651.00
2024-01-06T10:43:52.633Z,93649.00
2024-01-06T10:44:52.565Z,93650.00
2024-01-06T10:45:52.656Z,93652.00
2024-01-06T10:46:52.560Z,93649.00
2024-01-06T10:47:52.570Z,93654.00
2024-01-06T10:48:52.695Z,93655.00
2024-01-06T10:49:55.756Z,93656.00
2024-01-06T10:50:52.569Z,93654.00
2024-01-06T10:51:52.749Z,93654.00
2024-01-06T10:52:52.584Z,93655.00
2024-01-06T10:53:52.570Z,93653.00
2024-01-06T10:54:52.620Z,93653.00
2024-01-06T10:55:56.267Z,93653.00
2024-01-06T10:56:52.580Z,93651.00
2024-01-06T10:57:52.636Z,93650.00
2024-01-06T10:58:52.587Z,93647.00
2024-01-06T10:59:52.604Z,93649.00
2024-01-06T11:00:52.728Z,93645.00
2024-01-06T11:01:52.709Z,93643.00
2024-01-06T11:02:52.584Z,93642.00
2024-01-06T11:03:52.663Z,93641.00
2024-01-06T11:04:52.590Z,93638.00
2024-01-06T11:05:52.670Z,93639.00
2024-01-06T11:06:52.631Z,93636.00
2024-01-06T11:07:52.595Z,93636.00
2024-01-06T11:08:52.586Z,93634.00
2024-01-06T11:09:52.637Z,93635.00
2024-01-06T11:10:52.615Z,93634.00
2024-01-06T11:11:52.596Z,93636.00
2024-01-06T11:12:52.648Z,93637.00
2024-01-06T11:13:52.641Z,93634.00
2024-01-06T11:14:52.597Z,93635.00
2024-01-06T11:15:52.632Z,93635.00
2024-01-06T11:16:52.612Z,93634.00
2024-01-06T11:17:52.761Z,93632.00
2024-01-06T11:18:52.700Z,93633.00
2024-01-06T11:19:52.843Z,93631.00
2024-01-06T11:20:52.610Z,93630.00
2024-01-06T11:21:52.659Z,93627.00
2024-01-06T11:22:52.618Z,93622.00
2024-01-06T11:23:52.614Z,93622.00
2024-01-06T11:24:52.696Z,93621.00
2024-01-06T11:25:52.610Z,93620.00
2024-01-06T11:26:52.607Z,93619.00
2024-01-06T11:27:52.652Z,93618.00
2024-01-06T11:28:52.617Z,93620.00
2024-01-06T11:29:52.623Z,93617.00
2024-01-06T11:30:52.737Z,93616.00
2024-01-06T11:31:52.753Z,93615.00
2024-01-06T11:32:52.644Z,93614.00
2024-01-06T11:33:52.744Z,93614.00
2024-01-06T11:34:52.742Z,93613.00
2024-01-06T11:35:52.631Z,93612.00
2024-01-06T11:36:52.759Z,93610.00
2024-01-06T11:37:52.708Z,93610.00
2024-01-06T11:38:52.740Z,93607.00
2024-01-06T11:39:52.917Z,93607.00
2024-01-06T11:40:52.840Z,93605.00
2024-01-06T11:41:52.911Z,93605.00
2024-01-06T11:42:52.992Z,93602.00
2024-01-06T11:43:53.050Z,93602.00
2024-01-06T11:44:53.139Z,93605.00